createdAt,value
2022-08-21T00:02:35.251Z,100.00
2022-08-21T00:07:36.873Z,100.00
2022-08-21T00:12:38.976Z,100.00
2022-08-21T00:17:40.940Z,100.00
2022-08-21T00:22:43.694Z,100.00
2022-08-21T00:27:45.413Z,100.00
2022-08-21T00:32:46.989Z,100.00
2022-08-21T00:37:48.867Z,100.00
2022-08-21T00:42:53.810Z,100.00
2022-08-21T00:47:55.568Z,100.00
2022-08-21T00:52:58.203Z,100.00
2022-08-21T00:58:02.256Z,100.00
2022-08-21T01:03:09.120Z,100.00
2022-08-21T01:08:11.614Z,100.00
2022-08-21T01:13:16.498Z,100.00
2022-08-21T01:18:18.360Z,100.00
2022-08-21T01:23:20.013Z,100.00
2022-08-21T01:28:23.252Z,100.00
2022-08-21T01:33:25.872Z,100.00
2022-08-21T01:38:27.700Z,100.00
2022-08-21T01:43:39.459Z,100.00
2022-08-21T01:48:43.325Z,100.00
2022-08-21T01:53:45.017Z,100.00
2022-08-21T01:58:48.016Z,100.00
2022-08-21T02:09:54.813Z,100.00
2022-08-21T02:14:57.645Z,100.00
2022-08-21T02:19:59.198Z,100.00
2022-08-21T02:25:01.178Z,100.00
2022-08-21T02:30:04.174Z,100.00
2022-08-21T02:35:08.051Z,100.00
2022-08-21T02:40:10.452Z,100.00
2022-08-21T02:45:13.593Z,100.00
2022-08-21T02:50:21.145Z,100.00
2022-08-21T02:55:26.746Z,100.00
2022-08-21T03:00:30.830Z,100.00
2022-08-21T03:05:35.339Z,100.00
2022-08-21T03:10:42.228Z,100.00
2022-08-21T03:15:44.040Z,100.00
2022-08-21T03:20:46.161Z,100.00
2022-08-21T03:25:49.192Z,100.00
2022-08-21T03:30:53.234Z,100.00
2022-08-21T03:36:07.631Z,100.00
2022-08-21T03:41:10.420Z,100.00
2022-08-21T03:46:14.917Z,100.00
2022-08-21T03:51:16.503Z,100.00
2022-08-21T03:56:18.363Z,100.00
2022-08-21T04:01:20.126Z,100.00
2022-08-21T04:06:22.952Z,100.00
2022-08-21T04:11:25.338Z,100.00
2022-08-21T04:16:27.071Z,100.00
2022-08-21T04:21:29.035Z,100.00
2022-08-21T04:26:31.316Z,100.00
2022-08-21T04:31:34.340Z,100.00
2022-08-21T04:36:36.440Z,100.00
2022-08-21T04:41:38.540Z,100.00
2022-08-21T04:46:40.440Z,100.00
2022-08-21T04:51:42.854Z,100.00
2022-08-21T04:56:52.888Z,100.00
2022-08-21T05:01:56.054Z,100.00
2022-08-21T05:07:03.433Z,100.00
2022-08-21T05:12:05.445Z,100.00
2022-08-21T05:17:07.455Z,100.00
2022-08-21T05:22:09.271Z,100.00
2022-08-21T05:27:11.727Z,100.00
2022-08-21T05:32:15.392Z,100.00
2022-08-21T05:37:17.634Z,100.00
2022-08-21T05:42:22.052Z,100.00
2022-08-21T05:47:24.263Z,100.00
2022-08-21T05:52:28.545Z,100.00
2022-08-21T05:57:30.475Z,100.00
2022-08-21T06:02:32.026Z,100.00
2022-08-21T06:07:33.784Z,100.00
2022-08-21T06:12:35.444Z,100.00
2022-08-21T06:17:37.163Z,100.00
2022-08-21T06:22:38.771Z,100.00
2022-08-21T06:27:40.392Z,100.00
2022-08-21T06:32:42.584Z,100.00
2022-08-21T06:37:44.220Z,100.00
2022-08-21T06:42:45.954Z,100.00
2022-08-21T06:47:49.294Z,96.89
2022-08-21T06:52:58.730Z,88.63
2022-08-21T06:58:00.523Z,86.29
2022-08-21T07:03:03.140Z,80.58
2022-08-21T07:08:05.109Z,84.19
2022-08-21T07:13:07.034Z,79.84
2022-08-21T07:18:08.980Z,73.68
2022-08-21T07:23:33.244Z,72.28
2022-08-21T07:28:35.588Z,71.15
2022-08-21T07:33:38.039Z,67.63
2022-08-21T07:38:40.356Z,65.32
2022-08-21T07:43:46.081Z,64.27
2022-08-21T07:48:48.075Z,62.73
2022-08-21T07:53:52.402Z,60.67
2022-08-21T07:58:54.035Z,58.73
2022-08-21T08:03:56.346Z,58.46
2022-08-21T08:08:57.903Z,54.87
2022-08-21T08:13:59.607Z,55.99
2022-08-21T08:19:01.494Z,58.09
2022-08-21T08:24:19.466Z,55.93
2022-08-21T08:29:22.457Z,52.95
2022-08-21T08:34:25.643Z,52.39
2022-08-21T08:39:29.582Z,50.48
2022-08-21T08:44:31.696Z,52.23
2022-08-21T08:49:41.082Z,49.15
2022-08-21T08:54:49.091Z,51.28
2022-08-21T08:59:53.749Z,50.58
2022-08-21T09:04:56.763Z,48.00
2022-08-21T09:10:18.049Z,51.07
2022-08-21T09:15:58.446Z,49.24
2022-08-21T09:21:24.848Z,47.23
2022-08-21T09:26:50.759Z,50.70
2022-08-21T09:31:52.480Z,44.28
2022-08-21T09:36:54.472Z,43.88
2022-08-21T09:42:01.344Z,39.38
2022-08-21T09:47:03.165Z,38.97
2022-08-21T09:52:16.425Z,39.65
2022-08-21T09:57:29.520Z,42.42
2022-08-21T10:02:36.692Z,42.40
2022-08-21T10:07:39.146Z,39.56
2022-08-21T10:12:55.939Z,39.47
2022-08-21T10:18:26.464Z,38.83
2022-08-21T10:23:31.038Z,38.90
2022-08-21T10:28:47.577Z,38.33
2022-08-21T10:33:52.287Z,37.74
2022-08-21T10:44:47.592Z,37.47
2022-08-21T10:50:08.238Z,35.07
2022-08-21T10:55:15.168Z,37.01
2022-08-21T11:00:21.425Z,36.21
2022-08-21T11:05:25.871Z,36.70
2022-08-21T11:10:37.451Z,36.65
2022-08-21T11:16:06.323Z,34.70
2022-08-21T11:21:27.901Z,35.97
2022-08-21T11:26:42.208Z,35.11
2022-08-21T11:31:43.658Z,33.06
2022-08-21T11:37:12.240Z,33.25
2022-08-21T11:42:31.250Z,34.53
2022-08-21T11:48:28.834Z,34.66
2022-08-21T11:53:43.615Z,34.57
2022-08-21T11:58:54.505Z,34.13
2022-08-21T12:04:05.156Z,33.33
2022-08-21T12:09:26.367Z,34.29
2022-08-21T12:14:48.773Z,34.08
2022-08-21T12:20:02.227Z,31.11
2022-08-21T12:25:12.397Z,33.46
2022-08-21T12:30:29.028Z,29.97
2022-08-21T12:35:39.982Z,31.67
2022-08-21T12:40:51.323Z,29.90
2022-08-21T12:45:53.008Z,31.04
2022-08-21T12:51:12.744Z,28.50
2022-08-21T12:56:19.987Z,30.44
2022-08-21T13:01:37.084Z,30.17
2022-08-21T13:06:46.591Z,30.94
2022-08-21T13:11:49.820Z,31.10
2022-08-21T13:16:59.937Z,29.70
2022-08-21T13:22:02.861Z,30.05
2022-08-21T13:27:28.823Z,30.74
2022-08-21T13:32:33.004Z,29.51
2022-08-21T13:37:36.067Z,29.70
2022-08-21T13:42:41.669Z,30.25
2022-08-21T13:47:46.461Z,32.07
2022-08-21T13:53:04.577Z,34.11
2022-08-21T13:58:07.529Z,33.55
2022-08-21T14:03:11.902Z,32.27
2022-08-21T14:08:15.631Z,30.77
2022-08-21T14:13:44.626Z,31.45
2022-08-21T14:19:03.750Z,32.83
2022-08-21T14:24:15.187Z,33.86
2022-08-21T14:29:25.178Z,33.82
2022-08-21T14:34:34.097Z,36.20
2022-08-21T14:39:40.687Z,37.27
2022-08-21T14:44:45.404Z,37.65
2022-08-21T14:49:47.040Z,38.41
2022-08-21T14:54:48.613Z,38.91
2022-08-21T14:59:50.339Z,38.39
2022-08-21T15:04:52.141Z,38.75
2022-08-21T15:09:53.936Z,37.80
2022-08-21T15:14:55.668Z,38.22
2022-08-21T15:19:57.367Z,38.65
2022-08-21T15:24:58.941Z,38.13
2022-08-21T15:30:00.762Z,38.33
2022-08-21T15:35:02.752Z,37.96
2022-08-21T15:40:07.047Z,37.18
2022-08-21T15:45:10.967Z,35.67
2022-08-21T15:50:13.654Z,37.62
2022-08-21T15:55:15.989Z,37.75
2022-08-21T16:00:24.160Z,37.66
2022-08-21T16:05:25.961Z,37.67
2022-08-21T16:10:30.090Z,35.19
2022-08-21T16:15:32.526Z,37.42
2022-08-21T16:20:34.269Z,36.27
2022-08-21T16:25:39.973Z,34.78
2022-08-21T16:30:44.393Z,36.53
2022-08-21T16:35:47.603Z,38.17
2022-08-21T16:40:49.500Z,38.00
2022-08-21T16:45:51.391Z,37.46
2022-08-21T16:50:53.180Z,37.76
2022-08-21T16:55:55.041Z,39.12
2022-08-21T17:00:58.200Z,39.64
2022-08-21T17:06:00.964Z,39.72
2022-08-21T17:11:05.006Z,38.15
2022-08-21T17:16:06.935Z,38.62
2022-08-21T17:21:08.557Z,39.55
2022-08-21T17:26:11.571Z,39.96
2022-08-21T17:31:14.727Z,40.32
2022-08-21T17:36:18.649Z,40.83
2022-08-21T17:41:21.498Z,41.22
2022-08-21T17:46:29.768Z,42.48
2022-08-21T17:51:31.752Z,43.51
2022-08-21T17:56:37.581Z,44.21
2022-08-21T18:01:42.184Z,44.53
2022-08-21T18:06:44.507Z,46.33
2022-08-21T18:11:46.520Z,46.25
2022-08-21T18:16:49.675Z,47.07
2022-08-21T18:21:55.751Z,47.52
2022-08-21T18:26:57.433Z,48.18
2022-08-21T18:31:59.238Z,48.34
2022-08-21T18:37:02.307Z,47.91
2022-08-21T18:42:09.680Z,48.34
2022-08-21T18:47:18.175Z,48.98
2022-08-21T18:52:20.933Z,48.54
2022-08-21T18:57:28.260Z,48.28
2022-08-21T19:02:30.307Z,48.41
2022-08-21T19:07:32.124Z,48.94
2022-08-21T19:12:34.462Z,49.52
2022-08-21T19:17:37.832Z,50.25
2022-08-21T19:22:40.821Z,50.82
2022-08-21T19:27:43.204Z,50.66
2022-08-21T19:32:47.750Z,50.92
2022-08-21T19:37:49.417Z,51.49
2022-08-21T19:42:54.221Z,51.35
2022-08-21T19:47:56.126Z,51.96
2022-08-21T19:53:00.802Z,52.22
2022-08-21T19:58:04.610Z,52.54
2022-08-21T20:03:07.179Z,53.02
2022-08-21T20:08:20.295Z,53.08
2022-08-21T20:13:23.316Z,53.45
2022-08-21T20:18:26.732Z,54.05
2022-08-21T20:28:51.650Z,55.04
2022-08-21T20:33:53.475Z,55.20
2022-08-21T20:38:56.395Z,56.16
2022-08-21T20:43:59.921Z,56.36
2022-08-21T20:49:02.496Z,56.70
2022-08-21T20:54:35.232Z,57.19
2022-08-21T20:59:58.507Z,58.16
2022-08-21T21:05:05.815Z,58.55
2022-08-21T21:10:24.887Z,58.67
2022-08-21T21:15:33.304Z,58.91
2022-08-21T21:20:45.756Z,59.65
2022-08-21T21:25:57.546Z,59.33
2022-08-21T21:30:59.165Z,58.48
2022-08-21T21:36:16.433Z,59.63
2022-08-21T21:41:35.420Z,60.34
2022-08-21T21:46:50.708Z,60.04
2022-08-21T21:52:33.048Z,60.56
2022-08-21T21:57:58.837Z,61.07
2022-08-21T22:03:16.488Z,60.91
2022-08-21T22:14:03.050Z,61.86
2022-08-21T22:19:26.925Z,61.96
2022-08-21T22:24:32.495Z,61.55
2022-08-21T22:30:03.517Z,62.44
2022-08-21T22:35:23.599Z,63.09
2022-08-21T22:40:32.355Z,63.18
2022-08-21T22:46:08.865Z,65.28
2022-08-21T22:56:59.747Z,66.21
2022-08-21T23:02:07.646Z,66.83
2022-08-21T23:07:33.784Z,68.20
2022-08-21T23:12:43.731Z,69.88
2022-08-21T23:17:55.058Z,70.35
2022-08-21T23:23:27.435Z,72.79
2022-08-21T23:28:41.767Z,73.58
2022-08-21T23:33:51.916Z,75.17
2022-08-21T23:45:31.616Z,77.61
2022-08-21T23:50:48.371Z,78.06
2022-08-21T23:55:55.254Z,79.87
